sensor_id;sensor_type;location;lat;lon;timestamp;P1;durP1;ratioP1;P2;durP2;ratioP2
9280;SDS011;4679;47.966;7.958;2023-06-26T05:48:07;3.60;;;3.27;;
9280;SDS011;4679;47.966;7.958;2023-06-26T05:50:09;3.30;;;3.10;;
9280;SDS011;4679;47.966;7.958;2023-06-26T05:52:12;3.20;;;2.90;;
9280;SDS011;4679;47.966;7.958;2023-06-26T05:54:14;3.07;;;2.87;;
9280;SDS011;4679;47.966;7.958;2023-06-26T05:56:17;3.40;;;3.10;;
9280;SDS011;4679;47.966;7.958;2023-06-26T05:58:19;4.63;;;4.23;;
9280;SDS011;4679;47.966;7.958;2023-06-26T06:00:23;3.27;;;3.07;;
9280;SDS011;4679;47.966;7.958;2023-06-26T06:02:26;3.07;;;2.87;;
9280;SDS011;4679;47.966;7.958;2023-06-26T06:04:29;4.37;;;3.50;;
9280;SDS011;4679;47.966;7.958;2023-06-26T06:06:31;3.33;;;3.13;;
9280;SDS011;4679;47.966;7.958;2023-06-26T06:08:33;3.77;;;3.47;;
9280;SDS011;4679;47.966;7.958;2023-06-26T06:10:35;4.83;;;3.70;;
9280;SDS011;4679;47.966;7.958;2023-06-26T06:12:36;4.63;;;3.73;;
9280;SDS011;4679;47.966;7.958;2023-06-26T06:14:38;3.37;;;3.17;;
9280;SDS011;4679;47.966;7.958;2023-06-26T06:16:40;3.73;;;3.43;;
9280;SDS011;4679;47.966;7.958;2023-06-26T06:18:42;3.80;;;3.53;;
9280;SDS011;4679;47.966;7.958;2023-06-26T06:20:45;4.07;;;3.77;;
9280;SDS011;4679;47.966;7.958;2023-06-26T06:22:46;4.00;;;3.70;;
9280;SDS011;4679;47.966;7.958;2023-06-26T06:24:49;3.90;;;3.60;;
9280;SDS011;4679;47.966;7.958;2023-06-26T06:26:51;3.70;;;3.40;;
9280;SDS011;4679;47.966;7.958;2023-06-26T06:28:53;3.47;;;3.17;;
9280;SDS011;4679;47.966;7.958;2023-06-26T06:30:55;4.10;;;3.80;;
9280;SDS011;4679;47.966;7.958;2023-06-26T06:32:57;4.33;;;3.87;;
9280;SDS011;4679;47.966;7.958;2023-06-26T06:34:59;3.53;;;3.27;;
9280;SDS011;4679;47.966;7.958;2023-06-26T06:37:05;3.63;;;3.40;;
9280;SDS011;4679;47.966;7.958;2023-06-26T06:39:07;4.63;;;3.60;;
9280;SDS011;4679;47.966;7.958;2023-06-26T06:41:09;3.50;;;3.07;;
9280;SDS011;4679;47.966;7.958;2023-06-26T06:43:10;4.53;;;3.43;;
9280;SDS011;4679;47.966;7.958;2023-06-26T06:45:12;4.33;;;3.47;;
9280;SDS011;4679;47.966;7.958;2023-06-26T06:47:14;5.93;;;4.37;;
9280;SDS011;4679;47.966;7.958;2023-06-26T06:49:15;3.42;;;3.22;;
9280;SDS011;4679;47.966;7.958;2023-06-26T06:51:17;4.63;;;4.22;;
9280;SDS011;4679;47.966;7.958;2023-06-26T06:53:20;4.22;;;3.90;;
9280;SDS011;4679;47.966;7.958;2023-06-26T06:55:23;4.30;;;3.90;;
9280;SDS011;4679;47.966;7.958;2023-06-26T06:57:27;4.88;;;4.47;;
9280;SDS011;4679;47.966;7.958;2023-06-26T06:59:29;4.50;;;4.10;;
9280;SDS011;4679;47.966;7.958;2023-06-26T07:01:31;4.70;;;4.30;;
9280;SDS011;4679;47.966;7.958;2023-06-26T07:03:32;4.80;;;3.95;;
9280;SDS011;4679;47.966;7.958;2023-06-26T07:05:34;4.00;;;3.80;;
9280;SDS011;4679;47.966;7.958;2023-06-26T07:07:36;5.80;;;3.58;;
9280;SDS011;4679;47.966;7.958;2023-06-26T07:09:40;4.65;;;4.25;;
9280;SDS011;4679;47.966;7.958;2023-06-26T07:11:41;5.57;;;4.07;;
9280;SDS011;4679;47.966;7.958;2023-06-26T07:13:43;5.28;;;3.60;;
9280;SDS011;4679;47.966;7.958;2023-06-26T07:15:45;4.20;;;3.90;;
9280;SDS011;4679;47.966;7.958;2023-06-26T07:17:47;3.92;;;3.63;;
9280;SDS011;4679;47.966;7.958;2023-06-26T07:19:49;3.75;;;3.42;;
9280;SDS011;4679;47.966;7.958;2023-06-26T07:21:51;4.25;;;3.17;;
9280;SDS011;4679;47.966;7.958;2023-06-26T07:23:53;3.80;;;3.30;;
9280;SDS011;4679;47.966;7.958;2023-06-26T07:25:56;4.32;;;3.70;;
9280;SDS011;4679;47.966;7.958;2023-06-26T07:27:57;3.60;;;3.30;;
9280;SDS011;4679;47.966;7.958;2023-06-26T07:29:59;3.83;;;3.53;;
9280;SDS011;4679;47.966;7.958;2023-06-26T07:32:01;3.47;;;3.28;;
9280;SDS011;4679;47.966;7.958;2023-06-26T07:34:02;3.58;;;3.38;;
9280;SDS011;4679;47.966;7.958;2023-06-26T07:36:04;4.75;;;3.83;;
9280;SDS011;4679;47.966;7.958;2023-06-26T07:38:06;3.65;;;3.35;;
9280;SDS011;4679;47.966;7.958;2023-06-26T07:40:08;3.40;;;3.13;;
9280;SDS011;4679;47.966;7.958;2023-06-26T07:42:11;3.50;;;3.30;;
9280;SDS011;4679;47.966;7.958;2023-06-26T07:44:13;3.28;;;3.08;;
9280;SDS011;4679;47.966;7.958;2023-06-26T07:46:15;3.65;;;3.40;;
9280;SDS011;4679;47.966;7.958;2023-06-26T07:48:17;3.72;;;3.53;;
9280;SDS011;4679;47.966;7.958;2023-06-26T07:50:18;3.90;;;3.70;;
9280;SDS011;4679;47.966;7.958;2023-06-26T07:52:23;4.35;;;3.85;;
9280;SDS011;4679;47.966;7.958;2023-06-26T07:54:24;3.53;;;3.03;;
9280;SDS011;4679;47.966;7.958;2023-06-26T07:56:26;4.22;;;3.90;;
9280;SDS011;4679;47.966;7.958;2023-06-26T07:58:29;3.65;;;3.35;;
9280;SDS011;4679;47.966;7.958;2023-06-26T08:00:31;3.72;;;3.53;;
9280;SDS011;4679;47.966;7.958;2023-06-26T08:02:33;4.00;;;3.55;;
9280;SDS011;4679;47.966;7.958;2023-06-26T08:04:34;3.83;;;3.58;;
9280;SDS011;4679;47.966;7.958;2023-06-26T08:06:36;3.80;;;3.50;;
9280;SDS011;4679;47.966;7.958;2023-06-26T08:08:40;3.22;;;3.03;;
9280;SDS011;4679;47.966;7.958;2023-06-26T08:10:42;3.83;;;3.53;;
9280;SDS011;4679;47.966;7.958;2023-06-26T08:12:43;4.47;;;3.85;;
9280;SDS011;4679;47.966;7.958;2023-06-26T08:14:47;4.03;;;3.80;;
9280;SDS011;4679;47.966;7.958;2023-06-26T08:16:48;4.18;;;3.45;;
9280;SDS011;4679;47.966;7.958;2023-06-26T08:18:50;3.97;;;3.75;;
9280;SDS011;4679;47.966;7.958;2023-06-26T08:20:52;4.00;;;3.63;;
9280;SDS011;4679;47.966;7.958;2023-06-26T08:22:54;3.38;;;3.13;;
9280;SDS011;4679;47.966;7.958;2023-06-26T08:24:55;3.72;;;3.50;;
9280;SDS011;4679;47.966;7.958;2023-06-26T08:26:57;3.28;;;3.08;;
9280;SDS011;4679;47.966;7.958;2023-06-26T08:28:59;4.35;;;4.00;;
9280;SDS011;4679;47.966;7.958;2023-06-26T08:31:02;3.13;;;2.92;;
9280;SDS011;4679;47.966;7.958;2023-06-26T08:33:03;4.07;;;3.80;;
9280;SDS011;4679;47.966;7.958;2023-06-26T08:35:05;3.63;;;3.33;;
9280;SDS011;4679;47.966;7.958;2023-06-26T08:37:10;4.88;;;3.92;;
9280;SDS011;4679;47.966;7.958;2023-06-26T08:39:12;6.22;;;3.80;;
9280;SDS011;4679;47.966;7.958;2023-06-26T08:41:13;4.15;;;3.38;;
9280;SDS011;4679;47.966;7.958;2023-06-26T08:43:15;3.58;;;3.38;;
9280;SDS011;4679;47.966;7.958;2023-06-26T08:45:17;3.40;;;3.20;;
9280;SDS011;4679;47.966;7.958;2023-06-26T08:47:20;2.95;;;2.75;;
9280;SDS011;4679;47.966;7.958;2023-06-26T08:49:25;3.72;;;2.80;;
9280;SDS011;4679;47.966;7.958;2023-06-26T08:51:30;2.88;;;2.67;;
9280;SDS011;4679;47.966;7.958;2023-06-26T08:53:36;3.63;;;2.83;;
9280;SDS011;4679;47.966;7.958;2023-06-26T08:55:44;2.75;;;2.65;;
9280;SDS011;4679;47.966;7.958;2023-06-26T08:57:46;3.47;;;3.28;;
9280;SDS011;4679;47.966;7.958;2023-06-26T08:59:47;3.30;;;2.83;;
9280;SDS011;4679;47.966;7.958;2023-06-26T09:01:49;3.00;;;2.88;;
9280;SDS011;4679;47.966;7.958;2023-06-26T09:03:53;3.53;;;3.33;;
9280;SDS011;4679;47.966;7.958;2023-06-26T09:05:54;3.60;;;3.20;;
9280;SDS011;4679;47.966;7.958;2023-06-26T09:07:56;3.65;;;3.40;;
9280;SDS011;4679;47.966;7.958;2023-06-26T09:09:58;3.30;;;2.83;;
9280;SDS011;4679;47.966;7.958;2023-06-26T09:12:01;3.92;;;3.47;;
9280;SDS011;4679;47.966;7.958;2023-06-26T09:14:03;3.63;;;3.33;;
9280;SDS011;4679;47.966;7.958;2023-06-26T09:16:07;5.70;;;3.10;;
9280;SDS011;4679;47.966;7.958;2023-06-26T09:18:09;4.07;;;3.72;;
9280;SDS011;4679;47.966;7.958;2023-06-26T09:20:13;3.78;;;3.58;;
9280;SDS011;4679;47.966;7.958;2023-06-26T09:22:14;3.85;;;3.55;;
9280;SDS011;4679;47.966;7.958;2023-06-26T09:24:17;3.78;;;3.58;;
9280;SDS011;4679;47.966;7.958;2023-06-26T09:26:18;3.65;;;3.35;;
9280;SDS011;4679;47.966;7.958;2023-06-26T09:28:22;4.18;;;3.88;;
9280;SDS011;4679;47.966;7.958;2023-06-26T09:30:24;3.70;;;3.50;;
9280;SDS011;4679;47.966;7.958;2023-06-26T09:32:26;4.13;;;3.92;;
9280;SDS011;4679;47.966;7.958;2023-06-26T09:34:31;4.22;;;3.90;;
9280;SDS011;4679;47.966;7.958;2023-06-26T09:36:35;4.32;;;3.92;;
9280;SDS011;4679;47.966;7.958;2023-06-26T09:38:37;7.15;;;3.97;;
9280;SDS011;4679;47.966;7.958;2023-06-26T09:40:38;4.95;;;4.03;;
9280;SDS011;4679;47.966;7.958;2023-06-26T09:42:40;4.22;;;4.00;;
9280;SDS011;4679;47.966;7.958;2023-06-26T09:44:43;4.53;;;4.13;;
9280;SDS011;4679;47.966;7.958;2023-06-26T09:46:45;4.38;;;4.07;;
9280;SDS011;4679;47.966;7.958;2023-06-26T09:48:47;4.15;;;3.95;;
9280;SDS011;4679;47.966;7.958;2023-06-26T09:50:49;4.15;;;3.78;;
9280;SDS011;4679;47.966;7.958;2023-06-26T09:52:52;4.15;;;3.78;;
9280;SDS011;4679;47.966;7.958;2023-06-26T09:55:06;5.18;;;4.80;;
9280;SDS011;4679;47.966;7.958;2023-06-26T09:57:08;5.53;;;5.00;;
9280;SDS011;4679;47.966;7.958;2023-06-26T09:59:10;4.72;;;4.30;;
9280;SDS011;4679;47.966;7.958;2023-06-26T10:01:12;4.72;;;4.15;;
9280;SDS011;4679;47.966;7.958;2023-06-26T10:03:15;5.70;;;4.45;;
9280;SDS011;4679;47.966;7.958;2023-06-26T10:05:17;5.03;;;4.72;;
9280;SDS011;4679;47.966;7.958;2023-06-26T10:07:19;5.40;;;4.63;;
9280;SDS011;4679;47.966;7.958;2023-06-26T10:09:24;4.60;;;4.40;;
9280;SDS011;4679;47.966;7.958;2023-06-26T10:11:27;5.45;;;4.80;;
9280;SDS011;4679;47.966;7.958;2023-06-26T10:13:35;4.43;;;4.22;;
9280;SDS011;4679;47.966;7.958;2023-06-26T10:15:40;4.50;;;4.20;;
9280;SDS011;4679;47.966;7.958;2023-06-26T10:17:45;6.68;;;4.18;;
9280;SDS011;4679;47.966;7.958;2023-06-26T10:19:48;5.10;;;4.30;;
9280;SDS011;4679;47.966;7.958;2023-06-26T10:21:51;4.30;;;4.10;;
9280;SDS011;4679;47.966;7.958;2023-06-26T10:23:54;4.20;;;3.88;;
9280;SDS011;4679;47.966;7.958;2023-06-26T10:25:59;4.95;;;4.53;;
9280;SDS011;4679;47.966;7.958;2023-06-26T10:28:02;4.60;;;4.15;;
9280;SDS011;4679;47.966;7.958;2023-06-26T10:30:06;4.88;;;4.40;;
9280;SDS011;4679;47.966;7.958;2023-06-26T10:32:13;4.65;;;4.28;;
9280;SDS011;4679;47.966;7.958;2023-06-26T10:34:16;4.90;;;4.60;;
9280;SDS011;4679;47.966;7.958;2023-06-26T10:36:19;4.65;;;4.25;;
9280;SDS011;4679;47.966;7.958;2023-06-26T10:38:22;4.70;;;4.07;;
9280;SDS011;4679;47.966;7.958;2023-06-26T10:40:50;4.97;;;4.57;;
9280;SDS011;4679;47.966;7.958;2023-06-26T10:42:53;4.68;;;4.28;;
9280;SDS011;4679;47.966;7.958;2023-06-26T10:45:11;4.88;;;4.40;;
9280;SDS011;4679;47.966;7.958;2023-06-26T10:47:29;5.07;;;4.63;;
9280;SDS011;4679;47.966;7.958;2023-06-26T10:49:31;4.80;;;4.40;;
9280;SDS011;4679;47.966;7.958;2023-06-26T10:51:33;4.28;;;4.05;;
9280;SDS011;4679;47.966;7.958;2023-06-26T10:53:35;5.00;;;4.60;;
9280;SDS011;4679;47.966;7.958;2023-06-26T10:55:39;4.43;;;4.13;;
9280;SDS011;4679;47.966;7.958;2023-06-26T10:57:44;5.43;;;4.93;;
9280;SDS011;4679;47.966;7.958;2023-06-26T10:59:52;6.13;;;4.75;;
9280;SDS011;4679;47.966;7.958;2023-06-26T11:02:09;6.35;;;4.60;;
9280;SDS011;4679;47.966;7.958;2023-06-26T11:04:12;4.88;;;4.50;;
9280;SDS011;4679;47.966;7.958;2023-06-26T11:06:19;4.10;;;3.90;;
9280;SDS011;4679;47.966;7.958;2023-06-26T11:08:22;4.95;;;4.53;;
9280;SDS011;4679;47.966;7.958;2023-06-26T11:10:47;4.72;;;4.35;;
9280;SDS011;4679;47.966;7.958;2023-06-26T11:12:50;4.60;;;4.38;;
9280;SDS011;4679;47.966;7.958;2023-06-26T11:14:59;4.53;;;4.05;;
9280;SDS011;4679;47.966;7.958;2023-06-26T11:17:02;4.75;;;4.30;;
9280;SDS011;4679;47.966;7.958;2023-06-26T11:19:04;4.78;;;4.38;;
9280;SDS011;4679;47.966;7.958;2023-06-26T11:21:08;5.32;;;4.47;;
9280;SDS011;4679;47.966;7.958;2023-06-26T11:23:11;4.82;;;4.53;;
9280;SDS011;4679;47.966;7.958;2023-06-26T11:25:13;5.28;;;4.97;;
9280;SDS011;4679;47.966;7.958;2023-06-26T11:27:15;4.82;;;4.53;;
9280;SDS011;4679;47.966;7.958;2023-06-26T11:29:16;4.97;;;4.50;;
9280;SDS011;4679;47.966;7.958;2023-06-26T11:31:26;5.88;;;4.63;;
9280;SDS011;4679;47.966;7.958;2023-06-26T11:33:30;4.93;;;4.53;;
9280;SDS011;4679;47.966;7.958;2023-06-26T11:35:31;5.57;;;5.18;;
9280;SDS011;4679;47.966;7.958;2023-06-26T11:37:33;5.18;;;4.88;;
9280;SDS011;4679;47.966;7.958;2023-06-26T11:39:35;5.07;;;4.78;;
9280;SDS011;4679;47.966;7.958;2023-06-26T11:41:37;5.47;;;5.05;;
9280;SDS011;4679;47.966;7.958;2023-06-26T11:43:40;4.82;;;4.50;;
9280;SDS011;4679;47.966;7.958;2023-06-26T11:45:42;5.25;;;4.72;;
9280;SDS011;4679;47.966;7.958;2023-06-26T11:47:45;5.20;;;4.85;;
9280;SDS011;4679;47.966;7.958;2023-06-26T11:49:47;5.78;;;4.65;;
9280;SDS011;4679;47.966;7.958;2023-06-26T11:51:50;5.35;;;4.95;;
9280;SDS011;4679;47.966;7.958;2023-06-26T11:53:51;4.55;;;4.28;;
9280;SDS011;4679;47.966;7.958;2023-06-26T11:55:53;4.93;;;4.53;;
9280;SDS011;4679;47.966;7.958;2023-06-26T11:57:56;4.88;;;4.43;;
9280;SDS011;4679;47.966;7.958;2023-06-26T11:59:58;4.88;;;4.45;;
9280;SDS011;4679;47.966;7.958;2023-06-26T12:04:02;4.90;;;4.60;;
9280;SDS011;4679;47.966;7.958;2023-06-26T12:06:05;4.55;;;4.35;;
9280;SDS011;4679;47.966;7.958;2023-06-26T12:08:07;5.43;;;5.03;;
9280;SDS011;4679;47.966;7.958;2023-06-26T12:10:09;5.20;;;4.28;;
9280;SDS011;4679;47.966;7.958;2023-06-26T12:12:12;4.95;;;4.45;;
9280;SDS011;4679;47.966;7.958;2023-06-26T12:14:16;4.40;;;4.18;;
9280;SDS011;4679;47.966;7.958;2023-06-26T12:16:19;5.82;;;4.60;;
9280;SDS011;4679;47.966;7.958;2023-06-26T12:18:21;4.68;;;4.40;;
9280;SDS011;4679;47.966;7.958;2023-06-26T12:20:27;4.32;;;3.95;;
9280;SDS011;4679;47.966;7.958;2023-06-26T12:22:33;5.22;;;4.70;;
9280;SDS011;4679;47.966;7.958;2023-06-26T12:24:36;7.22;;;3.85;;
9280;SDS011;4679;47.966;7.958;2023-06-26T12:26:40;3.85;;;3.55;;
9280;SDS011;4679;47.966;7.958;2023-06-26T12:28:44;4.72;;;4.32;;
9280;SDS011;4679;47.966;7.958;2023-06-26T12:30:46;4.10;;;3.90;;
9280;SDS011;4679;47.966;7.958;2023-06-26T12:32:48;4.35;;;3.72;;
9280;SDS011;4679;47.966;7.958;2023-06-26T12:34:51;3.85;;;3.50;;
9280;SDS011;4679;47.966;7.958;2023-06-26T12:36:58;3.80;;;3.53;;
9280;SDS011;4679;47.966;7.958;2023-06-26T12:39:01;3.33;;;3.03;;
9280;SDS011;4679;47.966;7.958;2023-06-26T12:41:04;3.78;;;3.47;;
9280;SDS011;4679;47.966;7.958;2023-06-26T12:43:06;3.78;;;3.35;;
9280;SDS011;4679;47.966;7.958;2023-06-26T12:45:13;3.80;;;3.60;;
9280;SDS011;4679;47.966;7.958;2023-06-26T12:47:16;4.22;;;3.78;;
9280;SDS011;4679;47.966;7.958;2023-06-26T12:49:19;3.70;;;3.40;;
9280;SDS011;4679;47.966;7.958;2023-06-26T12:51:22;4.07;;;3.65;;
9280;SDS011;4679;47.966;7.958;2023-06-26T12:53:28;5.70;;;3.72;;
9280;SDS011;4679;47.966;7.958;2023-06-26T12:55:30;3.13;;;2.92;;
9280;SDS011;4679;47.966;7.958;2023-06-26T12:57:32;3.40;;;3.17;;
9280;SDS011;4679;47.966;7.958;2023-06-26T12:59:35;5.05;;;3.58;;
9280;SDS011;4679;47.966;7.958;2023-06-26T13:01:38;5.40;;;3.95;;
9280;SDS011;4679;47.966;7.958;2023-06-26T13:03:40;3.85;;;3.58;;
9280;SDS011;4679;47.966;7.958;2023-06-26T13:05:42;3.58;;;3.28;;
9280;SDS011;4679;47.966;7.958;2023-06-26T13:07:44;5.35;;;3.08;;
9280;SDS011;4679;47.966;7.958;2023-06-26T13:09:47;5.43;;;3.05;;
9280;SDS011;4679;47.966;7.958;2023-06-26T13:11:49;3.67;;;3.40;;
9280;SDS011;4679;47.966;7.958;2023-06-26T13:13:51;3.60;;;3.30;;
9280;SDS011;4679;47.966;7.958;2023-06-26T13:15:53;3.97;;;3.28;;
9280;SDS011;4679;47.966;7.958;2023-06-26T13:17:55;3.72;;;2.95;;
9280;SDS011;4679;47.966;7.958;2023-06-26T13:19:56;3.63;;;3.33;;
9280;SDS011;4679;47.966;7.958;2023-06-26T13:21:58;4.32;;;3.70;;
9280;SDS011;4679;47.966;7.958;2023-06-26T13:24:01;3.50;;;3.00;;
9280;SDS011;4679;47.966;7.958;2023-06-26T13:26:05;3.53;;;3.30;;
9280;SDS011;4679;47.966;7.958;2023-06-26T13:28:07;3.65;;;3.35;;
9280;SDS011;4679;47.966;7.958;2023-06-26T13:30:09;3.95;;;3.20;;
9280;SDS011;4679;47.966;7.958;2023-06-26T13:32:12;5.47;;;3.28;;
9280;SDS011;4679;47.966;7.958;2023-06-26T13:34:19;4.30;;;2.88;;
9280;SDS011;4679;47.966;7.958;2023-06-26T13:36:23;3.20;;;3.00;;
9280;SDS011;4679;47.966;7.958;2023-06-26T13:38:25;2.75;;;2.55;;
9280;SDS011;4679;47.966;7.958;2023-06-26T13:40:27;3.17;;;2.97;;
9280;SDS011;4679;47.966;7.958;2023-06-26T13:42:30;3.10;;;2.75;;
9280;SDS011;4679;47.966;7.958;2023-06-26T13:44:31;3.00;;;2.80;;
9280;SDS011;4679;47.966;7.958;2023-06-26T13:46:33;2.88;;;2.67;;
9280;SDS011;4679;47.966;7.958;2023-06-26T13:48:35;3.08;;;2.88;;
9280;SDS011;4679;47.966;7.958;2023-06-26T13:50:37;3.13;;;2.92;;
9280;SDS011;4679;47.966;7.958;2023-06-26T13:52:39;2.75;;;2.55;;
9280;SDS011;4679;47.966;7.958;2023-06-26T13:54:40;2.40;;;2.30;;
9280;SDS011;4679;47.966;7.958;2023-06-26T13:56:43;3.45;;;2.30;;
9280;SDS011;4679;47.966;7.958;2023-06-26T13:58:46;2.92;;;2.72;;
9280;SDS011;4679;47.966;7.958;2023-06-26T14:00:48;2.50;;;2.30;;
9280;SDS011;4679;47.966;7.958;2023-06-26T14:02:50;2.30;;;2.20;;
9280;SDS011;4679;47.966;7.958;2023-06-26T14:04:51;3.58;;;2.45;;
9280;SDS011;4679;47.966;7.958;2023-06-26T14:06:53;2.72;;;2.50;;
9280;SDS011;4679;47.966;7.958;2023-06-26T14:08:55;2.40;;;2.20;;
9280;SDS011;4679;47.966;7.958;2023-06-26T14:10:56;8.68;;;3.15;;
9280;SDS011;4679;47.966;7.958;2023-06-26T14:12:58;2.40;;;2.20;;
9280;SDS011;4679;47.966;7.958;2023-06-26T14:15:01;2.22;;;2.03;;
9280;SDS011;4679;47.966;7.958;2023-06-26T14:17:04;2.72;;;2.10;;
9280;SDS011;4679;47.966;7.958;2023-06-26T14:19:06;6.82;;;2.20;;
9280;SDS011;4679;47.966;7.958;2023-06-26T14:21:07;2.42;;;2.22;;
9280;SDS011;4679;47.966;7.958;2023-06-26T14:23:09;2.28;;;2.17;;
9280;SDS011;4679;47.966;7.958;2023-06-26T14:25:11;2.90;;;2.70;;
9280;SDS011;4679;47.966;7.958;2023-06-26T14:27:13;2.10;;;2.00;;
9280;SDS011;4679;47.966;7.958;2023-06-26T14:29:15;2.33;;;2.13;;
9280;SDS011;4679;47.966;7.958;2023-06-26T14:31:18;2.20;;;2.00;;
9280;SDS011;4679;47.966;7.958;2023-06-26T14:33:20;2.28;;;2.17;;
9280;SDS011;4679;47.966;7.958;2023-06-26T14:35:22;2.33;;;2.22;;
9280;SDS011;4679;47.966;7.958;2023-06-26T14:37:23;2.10;;;1.90;;
9280;SDS011;4679;47.966;7.958;2023-06-26T14:39:26;3.72;;;1.90;;
9280;SDS011;4679;47.966;7.958;2023-06-26T14:41:27;1.90;;;1.77;;
9280;SDS011;4679;47.966;7.958;2023-06-26T14:43:29;2.80;;;1.73;;
9280;SDS011;4679;47.966;7.958;2023-06-26T14:45:30;1.92;;;1.80;;
9280;SDS011;4679;47.966;7.958;2023-06-26T14:47:33;1.60;;;1.50;;
9280;SDS011;4679;47.966;7.958;2023-06-26T14:49:35;2.03;;;1.50;;
9280;SDS011;4679;47.966;7.958;2023-06-26T14:51:37;5.53;;;1.60;;
9280;SDS011;4679;47.966;7.958;2023-06-26T14:53:40;1.50;;;1.30;;
9280;SDS011;4679;47.966;7.958;2023-06-26T14:55:42;2.42;;;1.70;;
9280;SDS011;4679;47.966;7.958;2023-06-26T14:57:43;1.50;;;1.27;;
9280;SDS011;4679;47.966;7.958;2023-06-26T14:59:45;1.70;;;1.60;;
9280;SDS011;4679;47.966;7.958;2023-06-26T15:01:47;1.60;;;1.42;;
9280;SDS011;4679;47.966;7.958;2023-06-26T15:03:50;2.03;;;1.40;;
9280;SDS011;4679;47.966;7.958;2023-06-26T15:05:52;2.47;;;1.40;;
9280;SDS011;4679;47.966;7.958;2023-06-26T15:07:54;2.17;;;1.45;;
9280;SDS011;4679;47.966;7.958;2023-06-26T15:09:55;1.70;;;1.60;;
9280;SDS011;4679;47.966;7.958;2023-06-26T15:11:57;1.83;;;1.50;;
9280;SDS011;4679;47.966;7.958;2023-06-26T15:13:59;1.98;;;1.67;;
9280;SDS011;4679;47.966;7.958;2023-06-26T15:16:00;2.10;;;1.50;;
9280;SDS011;4679;47.966;7.958;2023-06-26T15:18:02;2.22;;;1.50;;
9280;SDS011;4679;47.966;7.958;2023-06-26T15:20:08;4.40;;;1.60;;
9280;SDS011;4679;47.966;7.958;2023-06-26T15:22:10;1.77;;;1.63;;
9280;SDS011;4679;47.966;7.958;2023-06-26T15:24:11;2.25;;;1.77;;
9280;SDS011;4679;47.966;7.958;2023-06-26T15:26:13;1.70;;;1.60;;
9280;SDS011;4679;47.966;7.958;2023-06-26T15:28:15;4.53;;;1.67;;
9280;SDS011;4679;47.966;7.958;2023-06-26T15:30:17;2.25;;;1.80;;
9280;SDS011;4679;47.966;7.958;2023-06-26T15:32:18;1.90;;;1.80;;
9280;SDS011;4679;47.966;7.958;2023-06-26T15:34:20;2.97;;;2.05;;
9280;SDS011;4679;47.966;7.958;2023-06-26T15:36:23;2.88;;;1.77;;
9280;SDS011;4679;47.966;7.958;2023-06-26T15:38:25;1.92;;;1.83;;
9280;SDS011;4679;47.966;7.958;2023-06-26T15:40:26;6.00;;;1.75;;
9280;SDS011;4679;47.966;7.958;2023-06-26T15:42:28;3.40;;;1.75;;
9280;SDS011;4679;47.966;7.958;2023-06-26T15:44:30;2.13;;;2.00;;
9280;SDS011;4679;47.966;7.958;2023-06-26T15:46:32;2.33;;;2.13;;
9280;SDS011;4679;47.966;7.958;2023-06-26T15:48:34;2.60;;;1.92;;
9280;SDS011;4679;47.966;7.958;2023-06-26T15:50:35;1.95;;;1.85;;
9280;SDS011;4679;47.966;7.958;2023-06-26T15:52:38;1.98;;;1.85;;
9280;SDS011;4679;47.966;7.958;2023-06-26T15:54:40;2.35;;;2.10;;
9280;SDS011;4679;47.966;7.958;2023-06-26T15:56:42;2.10;;;1.90;;
9280;SDS011;4679;47.966;7.958;2023-06-26T15:58:44;1.98;;;1.88;;
9280;SDS011;4679;47.966;7.958;2023-06-26T16:00:48;2.42;;;1.88;;
9280;SDS011;4679;47.966;7.958;2023-06-26T16:02:50;2.28;;;1.98;;
9280;SDS011;4679;47.966;7.958;2023-06-26T16:04:51;2.40;;;2.20;;
9280;SDS011;4679;47.966;7.958;2023-06-26T16:06:53;2.85;;;2.65;;
9280;SDS011;4679;47.966;7.958;2023-06-26T16:08:58;2.30;;;2.10;;
9280;SDS011;4679;47.966;7.958;2023-06-26T16:11:00;3.03;;;2.42;;
9280;SDS011;4679;47.966;7.958;2023-06-26T16:13:01;2.75;;;2.55;;
9280;SDS011;4679;47.966;7.958;2023-06-26T16:15:03;4.35;;;2.53;;
9280;SDS011;4679;47.966;7.958;2023-06-26T16:17:06;5.20;;;3.10;;
9280;SDS011;4679;47.966;7.958;2023-06-26T16:19:08;3.08;;;2.70;;
9280;SDS011;4679;47.966;7.958;2023-06-26T16:21:10;2.67;;;2.20;;
9280;SDS011;4679;47.966;7.958;2023-06-26T16:23:11;4.32;;;3.78;;
9280;SDS011;4679;47.966;7.958;2023-06-26T16:25:15;2.88;;;2.67;;
9280;SDS011;4679;47.966;7.958;2023-06-26T16:27:17;3.55;;;3.25;;
9280;SDS011;4679;47.966;7.958;2023-06-26T16:29:20;3.35;;;3.10;;
9280;SDS011;4679;47.966;7.958;2023-06-26T16:31:22;4.20;;;3.85;;
9280;SDS011;4679;47.966;7.958;2023-06-26T16:33:24;4.65;;;4.32;;
9280;SDS011;4679;47.966;7.958;2023-06-26T16:35:26;4.35;;;4.05;;
9280;SDS011;4679;47.966;7.958;2023-06-26T16:37:29;4.20;;;3.90;;
9280;SDS011;4679;47.966;7.958;2023-06-26T16:39:31;4.75;;;4.15;;
9280;SDS011;4679;47.966;7.958;2023-06-26T16:41:34;5.00;;;4.70;;
9280;SDS011;4679;47.966;7.958;2023-06-26T16:43:36;4.60;;;4.22;;
9280;SDS011;4679;47.966;7.958;2023-06-26T16:45:37;5.45;;;4.38;;
9280;SDS011;4679;47.966;7.958;2023-06-26T16:47:39;5.70;;;5.25;;
9280;SDS011;4679;47.966;7.958;2023-06-26T16:49:41;6.50;;;5.90;;
9280;SDS011;4679;47.966;7.958;2023-06-26T16:51:42;5.65;;;5.15;;
9280;SDS011;4679;47.966;7.958;2023-06-26T16:53:44;6.40;;;5.97;;
9280;SDS011;4679;47.966;7.958;2023-06-26T16:55:46;6.22;;;5.63;;
9280;SDS011;4679;47.966;7.958;2023-06-26T16:57:49;6.45;;;5.85;;
9280;SDS011;4679;47.966;7.958;2023-06-26T16:59:51;6.03;;;5.53;;
9280;SDS011;4679;47.966;7.958;2023-06-26T17:01:53;5.30;;;4.90;;
9280;SDS011;4679;47.966;7.958;2023-06-26T17:03:54;4.55;;;4.25;;
9280;SDS011;4679;47.966;7.958;2023-06-26T17:05:57;4.95;;;4.55;;
9280;SDS011;4679;47.966;7.958;2023-06-26T17:07:59;4.55;;;4.10;;
9280;SDS011;4679;47.966;7.958;2023-06-26T17:10:01;4.10;;;3.70;;
9280;SDS011;4679;47.966;7.958;2023-06-26T17:12:04;4.38;;;4.00;;
9280;SDS011;4679;47.966;7.958;2023-06-26T17:14:08;4.38;;;4.07;;
9280;SDS011;4679;47.966;7.958;2023-06-26T17:16:10;4.88;;;4.47;;
9280;SDS011;4679;47.966;7.958;2023-06-26T17:18:11;3.97;;;3.47;;
9280;SDS011;4679;47.966;7.958;2023-06-26T17:20:13;4.90;;;3.95;;
9280;SDS011;4679;47.966;7.958;2023-06-26T17:22:15;4.65;;;3.88;;
9280;SDS011;4679;47.966;7.958;2023-06-26T17:24:17;3.50;;;3.30;;
9280;SDS011;4679;47.966;7.958;2023-06-26T17:26:19;4.05;;;3.60;;
9280;SDS011;4679;47.966;7.958;2023-06-26T17:28:21;4.15;;;3.85;;
9280;SDS011;4679;47.966;7.958;2023-06-26T17:30:24;3.50;;;3.20;;
9280;SDS011;4679;47.966;7.958;2023-06-26T17:32:26;4.38;;;3.80;;
9280;SDS011;4679;47.966;7.958;2023-06-26T17:34:27;3.55;;;3.08;;
9280;SDS011;4679;47.966;7.958;2023-06-26T17:36:29;3.70;;;3.30;;
9280;SDS011;4679;47.966;7.958;2023-06-26T17:38:31;5.57;;;3.17;;
9280;SDS011;4679;47.966;7.958;2023-06-26T17:40:33;5.07;;;3.05;;
9280;SDS011;4679;47.966;7.958;2023-06-26T17:42:35;3.83;;;2.40;;
9280;SDS011;4679;47.966;7.958;2023-06-26T17:44:42;3.10;;;2.53;;
9280;SDS011;4679;47.966;7.958;2023-06-26T17:46:45;3.25;;;2.47;;
9280;SDS011;4679;47.966;7.958;2023-06-26T17:48:47;3.05;;;2.85;;
9280;SDS011;4679;47.966;7.958;2023-06-26T17:50:49;3.97;;;2.78;;
9280;SDS011;4679;47.966;7.958;2023-06-26T17:52:50;3.45;;;2.85;;
9280;SDS011;4679;47.966;7.958;2023-06-26T17:54:52;2.92;;;2.72;;
9280;SDS011;4679;47.966;7.958;2023-06-26T17:56:54;2.60;;;2.40;;
9280;SDS011;4679;47.966;7.958;2023-06-26T17:58:55;2.72;;;2.53;;
9280;SDS011;4679;47.966;7.958;2023-06-26T18:00:57;2.63;;;2.42;;
9280;SDS011;4679;47.966;7.958;2023-06-26T18:03:01;3.00;;;2.78;;
9280;SDS011;4679;47.966;7.958;2023-06-26T18:05:02;2.72;;;2.53;;
9280;SDS011;4679;47.966;7.958;2023-06-26T18:07:05;2.58;;;2.33;;
9280;SDS011;4679;47.966;7.958;2023-06-26T18:09:07;3.15;;;2.50;;
9280;SDS011;4679;47.966;7.958;2023-06-26T18:11:09;4.07;;;2.65;;
9280;SDS011;4679;47.966;7.958;2023-06-26T18:13:11;3.25;;;2.05;;
9280;SDS011;4679;47.966;7.958;2023-06-26T18:15:13;4.20;;;2.88;;
9280;SDS011;4679;47.966;7.958;2023-06-26T18:17:15;2.97;;;2.03;;
9280;SDS011;4679;47.966;7.958;2023-06-26T18:19:18;4.40;;;2.05;;
9280;SDS011;4679;47.966;7.958;2023-06-26T18:21:20;2.17;;;1.90;;
9280;SDS011;4679;47.966;7.958;2023-06-26T18:23:22;2.88;;;1.80;;
9280;SDS011;4679;47.966;7.958;2023-06-26T18:25:24;1.90;;;1.67;;
9280;SDS011;4679;47.966;7.958;2023-06-26T18:27:30;5.55;;;2.28;;
9280;SDS011;4679;47.966;7.958;2023-06-26T18:29:33;2.53;;;1.88;;
9280;SDS011;4679;47.966;7.958;2023-06-26T18:31:35;2.15;;;1.45;;